Holly Springs, Arkansas
Current Conditions -  °F | °C
As of 3:56 PM on Sunday 21 Dec 2014 (Local Time) from KSRC Reporting Station
Overcast Overcast  
Wind Chill: 53°   Ceiling: 9000
Heat Index: 53°   Visibility: 10mi
Dew Point: 36°   Wind: 6mph
Humidity: 52%   Direction: 130°SE
Pressure: 30.01"   Gusts: NA
Location:  35.2662°N, 91.8491°W
Report Text: KSRC 212156Z AUTO 13005KT 10SM OVC090 12/02 A3001 RMK AO2 SLP170 T01170022 TSNO
Loading
Personal Weather Stations






























Interactive Weather Map New forecast layout! Learn more

10-Day Weather Forecast

Advertisements
Track Severe Weather on mobile